sensor_id;sensor_type;location;lat;lon;timestamp;temperature;humidity
46784;DHT22;32544;52.832;13.816;2023-03-24T00:00:00;23.50;48.50
46784;DHT22;32544;52.832;13.816;2023-03-24T00:01:03;23.50;48.40
46784;DHT22;32544;52.832;13.816;2023-03-24T00:02:05;23.50;48.50
46784;DHT22;32544;52.832;13.816;2023-03-24T00:03:06;23.50;48.50
46784;DHT22;32544;52.832;13.816;2023-03-24T00:04:08;23.50;48.40
46784;DHT22;32544;52.832;13.816;2023-03-24T00:05:13;23.50;48.50
46784;DHT22;32544;52.832;13.816;2023-03-24T00:06:14;23.50;48.50
46784;DHT22;32544;52.832;13.816;2023-03-24T00:07:18;23.60;48.50
46784;DHT22;32544;52.832;13.816;2023-03-24T00:08:18;23.50;48.40
46784;DHT22;32544;52.832;13.816;2023-03-24T00:09:19;23.50;48.40
46784;DHT22;32544;52.832;13.816;2023-03-24T00:10:20;23.50;48.40
46784;DHT22;32544;52.832;13.816;2023-03-24T00:11:21;23.50;48.40
46784;DHT22;32544;52.832;13.816;2023-03-24T00:12:22;23.50;48.40
46784;DHT22;32544;52.832;13.816;2023-03-24T00:13:23;23.50;48.40
46784;DHT22;32544;52.832;13.816;2023-03-24T00:14:24;23.50;48.40
46784;DHT22;32544;52.832;13.816;2023-03-24T00:15:25;23.50;49.10
46784;DHT22;32544;52.832;13.816;2023-03-24T00:16:26;23.50;48.40
46784;DHT22;32544;52.832;13.816;2023-03-24T00:17:26;23.50;48.40
46784;DHT22;32544;52.832;13.816;2023-03-24T00:18:28;23.50;48.40
46784;DHT22;32544;52.832;13.816;2023-03-24T00:19:29;23.50;48.40
46784;DHT22;32544;52.832;13.816;2023-03-24T00:20:31;23.50;48.40
46784;DHT22;32544;52.832;13.816;2023-03-24T00:21:32;23.50;48.40
46784;DHT22;32544;52.832;13.816;2023-03-24T00:22:33;23.50;48.40
46784;DHT22;32544;52.832;13.816;2023-03-24T00:23:33;23.50;48.40
46784;DHT22;32544;52.832;13.816;2023-03-24T00:24:34;23.50;48.40
46784;DHT22;32544;52.832;13.816;2023-03-24T00:25:35;23.50;48.40
46784;DHT22;32544;52.832;13.816;2023-03-24T00:26:37;23.50;48.40
46784;DHT22;32544;52.832;13.816;2023-03-24T00:27:38;23.50;48.40
46784;DHT22;32544;52.832;13.816;2023-03-24T00:28:38;23.50;48.40
46784;DHT22;32544;52.832;13.816;2023-03-24T00:29:39;23.50;48.40
46784;DHT22;32544;52.832;13.816;2023-03-24T00:30:40;23.50;48.30
46784;DHT22;32544;52.832;13.816;2023-03-24T00:31:41;23.50;48.40
46784;DHT22;32544;52.832;13.816;2023-03-24T00:32:42;23.50;48.30
46784;DHT22;32544;52.832;13.816;2023-03-24T00:33:44;23.50;48.40
46784;DHT22;32544;52.832;13.816;2023-03-24T00:34:49;23.50;48.30
46784;DHT22;32544;52.832;13.816;2023-03-24T00:35:51;23.50;48.30
46784;DHT22;32544;52.832;13.816;2023-03-24T00:36:53;23.50;48.40
46784;DHT22;32544;52.832;13.816;2023-03-24T00:37:54;23.50;48.30
46784;DHT22;32544;52.832;13.816;2023-03-24T00:38:55;23.50;48.30
46784;DHT22;32544;52.832;13.816;2023-03-24T00:39:55;23.50;48.30
46784;DHT22;32544;52.832;13.816;2023-03-24T00:40:56;23.50;48.40
46784;DHT22;32544;52.832;13.816;2023-03-24T00:41:58;23.50;48.30
46784;DHT22;32544;52.832;13.816;2023-03-24T00:43:01;23.50;48.40
46784;DHT22;32544;52.832;13.816;2023-03-24T00:44:03;23.50;48.30
46784;DHT22;32544;52.832;13.816;2023-03-24T00:45:06;23.50;48.40
46784;DHT22;32544;52.832;13.816;2023-03-24T00:46:08;23.50;48.40
46784;DHT22;32544;52.832;13.816;2023-03-24T00:47:10;23.50;48.30
46784;DHT22;32544;52.832;13.816;2023-03-24T00:48:11;23.50;48.30
46784;DHT22;32544;52.832;13.816;2023-03-24T00:49:12;23.50;48.30
46784;DHT22;32544;52.832;13.816;2023-03-24T00:50:15;23.50;48.30
46784;DHT22;32544;52.832;13.816;2023-03-24T00:51:16;23.50;48.40
46784;DHT22;32544;52.832;13.816;2023-03-24T00:52:18;23.50;48.30
46784;DHT22;32544;52.832;13.816;2023-03-24T00:53:20;23.50;48.30
46784;DHT22;32544;52.832;13.816;2023-03-24T00:54:22;23.50;48.30
46784;DHT22;32544;52.832;13.816;2023-03-24T00:55:27;23.50;48.30
46784;DHT22;32544;52.832;13.816;2023-03-24T00:56:28;23.50;48.30
46784;DHT22;32544;52.832;13.816;2023-03-24T00:57:31;23.50;48.30
46784;DHT22;32544;52.832;13.816;2023-03-24T00:58:34;23.50;48.20
46784;DHT22;32544;52.832;13.816;2023-03-24T00:59:34;23.50;48.20
46784;DHT22;32544;52.832;13.816;2023-03-24T01:00:41;23.50;48.30
46784;DHT22;32544;52.832;13.816;2023-03-24T01:01:42;23.50;48.20
46784;DHT22;32544;52.832;13.816;2023-03-24T01:02:43;23.50;48.20
46784;DHT22;32544;52.832;13.816;2023-03-24T01:03:45;23.50;48.20
46784;DHT22;32544;52.832;13.816;2023-03-24T01:04:53;23.50;48.20
46784;DHT22;32544;52.832;13.816;2023-03-24T01:05:58;23.50;48.30
46784;DHT22;32544;52.832;13.816;2023-03-24T01:07:00;23.50;48.20
46784;DHT22;32544;52.832;13.816;2023-03-24T01:08:01;23.50;48.30
46784;DHT22;32544;52.832;13.816;2023-03-24T01:09:03;23.50;48.20
46784;DHT22;32544;52.832;13.816;2023-03-24T01:10:04;23.50;48.20
46784;DHT22;32544;52.832;13.816;2023-03-24T01:11:05;23.50;48.20
46784;DHT22;32544;52.832;13.816;2023-03-24T01:12:06;23.50;48.20
46784;DHT22;32544;52.832;13.816;2023-03-24T01:13:07;23.50;48.20
46784;DHT22;32544;52.832;13.816;2023-03-24T01:14:10;23.50;48.20
46784;DHT22;32544;52.832;13.816;2023-03-24T01:15:12;23.50;48.20
46784;DHT22;32544;52.832;13.816;2023-03-24T01:16:14;23.50;48.20
46784;DHT22;32544;52.832;13.816;2023-03-24T01:17:14;23.50;48.20
46784;DHT22;32544;52.832;13.816;2023-03-24T01:18:15;23.50;48.20
46784;DHT22;32544;52.832;13.816;2023-03-24T01:19:16;23.50;48.20
46784;DHT22;32544;52.832;13.816;2023-03-24T01:20:17;23.50;48.20
46784;DHT22;32544;52.832;13.816;2023-03-24T01:21:18;23.50;48.20
46784;DHT22;32544;52.832;13.816;2023-03-24T01:22:19;23.40;48.20
46784;DHT22;32544;52.832;13.816;2023-03-24T01:23:21;23.40;48.20
46784;DHT22;32544;52.832;13.816;2023-03-24T01:24:22;23.50;48.20
46784;DHT22;32544;52.832;13.816;2023-03-24T01:25:25;23.50;48.30
46784;DHT22;32544;52.832;13.816;2023-03-24T01:26:27;23.40;48.20
46784;DHT22;32544;52.832;13.816;2023-03-24T01:27:27;23.40;48.20
46784;DHT22;32544;52.832;13.816;2023-03-24T01:28:28;23.40;48.20
46784;DHT22;32544;52.832;13.816;2023-03-24T01:29:29;23.40;48.20
46784;DHT22;32544;52.832;13.816;2023-03-24T01:30:30;23.40;48.20
46784;DHT22;32544;52.832;13.816;2023-03-24T01:31:31;23.50;48.20
46784;DHT22;32544;52.832;13.816;2023-03-24T01:32:31;23.40;48.20
46784;DHT22;32544;52.832;13.816;2023-03-24T01:33:32;23.40;48.20
46784;DHT22;32544;52.832;13.816;2023-03-24T01:34:33;23.40;48.20
46784;DHT22;32544;52.832;13.816;2023-03-24T01:35:34;23.40;48.20
46784;DHT22;32544;52.832;13.816;2023-03-24T01:36:34;23.40;48.20
46784;DHT22;32544;52.832;13.816;2023-03-24T01:37:36;23.40;48.20
46784;DHT22;32544;52.832;13.816;2023-03-24T01:38:37;23.40;48.20
46784;DHT22;32544;52.832;13.816;2023-03-24T01:39:37;23.40;48.20
46784;DHT22;32544;52.832;13.816;2023-03-24T01:40:39;23.40;48.20
46784;DHT22;32544;52.832;13.816;2023-03-24T01:41:40;23.40;48.20
46784;DHT22;32544;52.832;13.816;2023-03-24T01:42:41;23.40;48.20
46784;DHT22;32544;52.832;13.816;2023-03-24T01:43:42;23.40;48.20
46784;DHT22;32544;52.832;13.816;2023-03-24T01:44:44;23.40;48.20
46784;DHT22;32544;52.832;13.816;2023-03-24T01:45:57;23.40;48.20
46784;DHT22;32544;52.832;13.816;2023-03-24T01:46:58;23.40;48.20
46784;DHT22;32544;52.832;13.816;2023-03-24T01:47:59;23.40;48.20
46784;DHT22;32544;52.832;13.816;2023-03-24T01:49:02;23.40;48.20
46784;DHT22;32544;52.832;13.816;2023-03-24T01:50:04;23.40;48.20
46784;DHT22;32544;52.832;13.816;2023-03-24T01:51:11;23.40;48.20
46784;DHT22;32544;52.832;13.816;2023-03-24T01:52:15;23.40;48.20
46784;DHT22;32544;52.832;13.816;2023-03-24T01:53:17;23.40;48.20
46784;DHT22;32544;52.832;13.816;2023-03-24T01:54:22;23.40;48.20
46784;DHT22;32544;52.832;13.816;2023-03-24T01:55:26;23.40;48.20
46784;DHT22;32544;52.832;13.816;2023-03-24T01:56:29;23.40;48.20
46784;DHT22;32544;52.832;13.816;2023-03-24T01:57:32;23.40;48.20
46784;DHT22;32544;52.832;13.816;2023-03-24T01:58:33;23.40;48.20
46784;DHT22;32544;52.832;13.816;2023-03-24T01:59:54;23.40;48.10
46784;DHT22;32544;52.832;13.816;2023-03-24T02:01:14;23.50;48.20
46784;DHT22;32544;52.832;13.816;2023-03-24T02:02:40;23.50;48.10
46784;DHT22;32544;52.832;13.816;2023-03-24T02:03:43;23.40;48.10
46784;DHT22;32544;52.832;13.816;2023-03-24T02:04:52;23.40;48.10
46784;DHT22;32544;52.832;13.816;2023-03-24T02:05:55;23.50;48.10
46784;DHT22;32544;52.832;13.816;2023-03-24T02:06:57;23.50;48.10
46784;DHT22;32544;52.832;13.816;2023-03-24T02:09:18;23.40;48.10
46784;DHT22;32544;52.832;13.816;2023-03-24T02:10:19;23.50;48.10
46784;DHT22;32544;52.832;13.816;2023-03-24T02:11:21;23.50;48.10
46784;DHT22;32544;52.832;13.816;2023-03-24T02:12:27;23.40;48.00
46784;DHT22;32544;52.832;13.816;2023-03-24T02:13:29;23.40;48.00
46784;DHT22;32544;52.832;13.816;2023-03-24T02:14:30;23.50;48.10
46784;DHT22;32544;52.832;13.816;2023-03-24T02:15:32;23.40;48.00
46784;DHT22;32544;52.832;13.816;2023-03-24T02:20:09;23.50;48.10
46784;DHT22;32544;52.832;13.816;2023-03-24T02:31:20;23.50;48.10
46784;DHT22;32544;52.832;13.816;2023-03-24T02:41:31;23.50;48.00
46784;DHT22;32544;52.832;13.816;2023-03-24T02:47:20;23.50;48.00
46784;DHT22;32544;52.832;13.816;2023-03-24T02:49:55;23.50;48.00
46784;DHT22;32544;52.832;13.816;2023-03-24T02:52:03;23.50;48.00
46784;DHT22;32544;52.832;13.816;2023-03-24T02:58:04;23.50;47.90
46784;DHT22;32544;52.832;13.816;2023-03-24T02:59:34;23.50;47.90
46784;DHT22;32544;52.832;13.816;2023-03-24T03:00:49;23.50;48.50
46784;DHT22;32544;52.832;13.816;2023-03-24T03:02:12;23.50;47.90
46784;DHT22;32544;52.832;13.816;2023-03-24T03:03:24;23.50;47.90
46784;DHT22;32544;52.832;13.816;2023-03-24T03:04:29;23.50;47.90
46784;DHT22;32544;52.832;13.816;2023-03-24T03:05:41;23.50;48.00
46784;DHT22;32544;52.832;13.816;2023-03-24T03:06:45;23.50;47.90
46784;DHT22;32544;52.832;13.816;2023-03-24T03:07:48;23.50;47.90
46784;DHT22;32544;52.832;13.816;2023-03-24T03:08:50;23.50;47.90
46784;DHT22;32544;52.832;13.816;2023-03-24T03:09:55;23.50;47.80
46784;DHT22;32544;52.832;13.816;2023-03-24T03:10:57;23.50;47.80
46784;DHT22;32544;52.832;13.816;2023-03-24T03:11:58;23.50;47.90
46784;DHT22;32544;52.832;13.816;2023-03-24T03:13:00;23.50;47.80
46784;DHT22;32544;52.832;13.816;2023-03-24T03:15:24;23.50;47.90
46784;DHT22;32544;52.832;13.816;2023-03-24T03:17:35;23.50;47.80
46784;DHT22;32544;52.832;13.816;2023-03-24T03:18:48;23.50;47.80
46784;DHT22;32544;52.832;13.816;2023-03-24T03:19:53;23.50;47.80
46784;DHT22;32544;52.832;13.816;2023-03-24T03:20:57;23.50;47.80
46784;DHT22;32544;52.832;13.816;2023-03-24T03:21:59;23.50;47.80
46784;DHT22;32544;52.832;13.816;2023-03-24T03:23:03;23.50;47.80
46784;DHT22;32544;52.832;13.816;2023-03-24T03:24:06;23.50;47.80
46784;DHT22;32544;52.832;13.816;2023-03-24T03:25:07;23.50;47.90
46784;DHT22;32544;52.832;13.816;2023-03-24T03:26:10;23.50;47.80
46784;DHT22;32544;52.832;13.816;2023-03-24T03:27:16;23.50;47.80
46784;DHT22;32544;52.832;13.816;2023-03-24T03:28:19;23.50;47.80
46784;DHT22;32544;52.832;13.816;2023-03-24T03:29:21;23.50;47.90
46784;DHT22;32544;52.832;13.816;2023-03-24T03:30:23;23.50;47.80
46784;DHT22;32544;52.832;13.816;2023-03-24T03:31:28;23.50;47.80
46784;DHT22;32544;52.832;13.816;2023-03-24T03:32:31;23.50;47.80
46784;DHT22;32544;52.832;13.816;2023-03-24T03:33:42;23.50;47.80
46784;DHT22;32544;52.832;13.816;2023-03-24T03:34:59;23.50;47.80
46784;DHT22;32544;52.832;13.816;2023-03-24T03:38:19;23.50;47.90
46784;DHT22;32544;52.832;13.816;2023-03-24T03:39:26;23.50;47.90
46784;DHT22;32544;52.832;13.816;2023-03-24T03:41:43;23.50;47.90
46784;DHT22;32544;52.832;13.816;2023-03-24T03:42:45;23.50;47.80
46784;DHT22;32544;52.832;13.816;2023-03-24T03:43:46;23.60;47.90
46784;DHT22;32544;52.832;13.816;2023-03-24T03:44:48;23.60;47.90
46784;DHT22;32544;52.832;13.816;2023-03-24T03:45:48;23.60;47.80
46784;DHT22;32544;52.832;13.816;2023-03-24T03:46:53;23.60;47.80
46784;DHT22;32544;52.832;13.816;2023-03-24T03:48:03;23.60;48.40
46784;DHT22;32544;52.832;13.816;2023-03-24T03:49:03;23.60;47.80
46784;DHT22;32544;52.832;13.816;2023-03-24T03:50:06;23.60;47.70
46784;DHT22;32544;52.832;13.816;2023-03-24T03:51:08;23.60;47.60
46784;DHT22;32544;52.832;13.816;2023-03-24T03:52:09;23.60;47.60
46784;DHT22;32544;52.832;13.816;2023-03-24T03:53:10;23.60;47.60
46784;DHT22;32544;52.832;13.816;2023-03-24T03:54:12;23.70;47.60
46784;DHT22;32544;52.832;13.816;2023-03-24T03:55:16;23.70;47.60
46784;DHT22;32544;52.832;13.816;2023-03-24T03:56:18;23.70;47.60
46784;DHT22;32544;52.832;13.816;2023-03-24T03:57:30;23.70;47.60
46784;DHT22;32544;52.832;13.816;2023-03-24T03:58:55;23.70;47.60
46784;DHT22;32544;52.832;13.816;2023-03-24T03:59:55;23.70;47.50
46784;DHT22;32544;52.832;13.816;2023-03-24T04:00:56;23.70;47.50
46784;DHT22;32544;52.832;13.816;2023-03-24T04:08:58;23.70;47.50
46784;DHT22;32544;52.832;13.816;2023-03-24T04:15:33;23.70;47.60
46784;DHT22;32544;52.832;13.816;2023-03-24T04:20:37;23.70;47.60
46784;DHT22;32544;52.832;13.816;2023-03-24T04:22:02;23.70;47.60
46784;DHT22;32544;52.832;13.816;2023-03-24T04:23:51;23.70;47.60
46784;DHT22;32544;52.832;13.816;2023-03-24T04:26:47;23.80;47.70
46784;DHT22;32544;52.832;13.816;2023-03-24T04:29:08;23.60;47.60
46784;DHT22;32544;52.832;13.816;2023-03-24T04:30:27;23.60;47.60
46784;DHT22;32544;52.832;13.816;2023-03-24T04:35:10;23.60;47.70
46784;DHT22;32544;52.832;13.816;2023-03-24T04:36:38;23.60;47.60
46784;DHT22;32544;52.832;13.816;2023-03-24T04:38:00;23.60;47.60
46784;DHT22;32544;52.832;13.816;2023-03-24T04:39:05;23.60;47.70
46784;DHT22;32544;52.832;13.816;2023-03-24T04:40:12;23.60;47.80
46784;DHT22;32544;52.832;13.816;2023-03-24T04:41:14;23.60;47.80
46784;DHT22;32544;52.832;13.816;2023-03-24T04:42:22;23.60;47.70
46784;DHT22;32544;52.832;13.816;2023-03-24T04:43:26;23.60;47.70
46784;DHT22;32544;52.832;13.816;2023-03-24T04:44:28;23.60;47.80
46784;DHT22;32544;52.832;13.816;2023-03-24T04:45:52;23.60;47.80
46784;DHT22;32544;52.832;13.816;2023-03-24T04:47:06;23.60;47.70
46784;DHT22;32544;52.832;13.816;2023-03-24T04:48:08;23.60;47.80
46784;DHT22;32544;52.832;13.816;2023-03-24T04:49:35;23.60;47.70
46784;DHT22;32544;52.832;13.816;2023-03-24T04:50:38;23.60;47.80
46784;DHT22;32544;52.832;13.816;2023-03-24T04:51:44;23.60;47.80
46784;DHT22;32544;52.832;13.816;2023-03-24T04:52:58;23.60;47.70
46784;DHT22;32544;52.832;13.816;2023-03-24T04:54:00;23.60;47.80
46784;DHT22;32544;52.832;13.816;2023-03-24T04:55:01;23.60;47.80
46784;DHT22;32544;52.832;13.816;2023-03-24T04:57:31;23.50;47.80
46784;DHT22;32544;52.832;13.816;2023-03-24T04:58:37;23.50;47.70
46784;DHT22;32544;52.832;13.816;2023-03-24T04:59:38;23.60;47.80
46784;DHT22;32544;52.832;13.816;2023-03-24T05:00:41;23.60;47.80
46784;DHT22;32544;52.832;13.816;2023-03-24T05:01:44;23.60;47.70
46784;DHT22;32544;52.832;13.816;2023-03-24T05:03:27;23.50;47.60
46784;DHT22;32544;52.832;13.816;2023-03-24T05:04:28;23.60;47.80
46784;DHT22;32544;52.832;13.816;2023-03-24T05:05:32;23.50;47.70
46784;DHT22;32544;52.832;13.816;2023-03-24T05:06:33;23.50;47.70
46784;DHT22;32544;52.832;13.816;2023-03-24T05:07:33;23.50;47.70
46784;DHT22;32544;52.832;13.816;2023-03-24T05:08:38;23.50;47.70
46784;DHT22;32544;52.832;13.816;2023-03-24T05:09:39;23.50;47.70
46784;DHT22;32544;52.832;13.816;2023-03-24T05:10:39;23.50;47.70
46784;DHT22;32544;52.832;13.816;2023-03-24T05:11:41;23.50;47.70
46784;DHT22;32544;52.832;13.816;2023-03-24T05:12:42;23.50;47.70
46784;DHT22;32544;52.832;13.816;2023-03-24T05:14:06;23.50;47.70
46784;DHT22;32544;52.832;13.816;2023-03-24T05:15:06;23.50;47.70
46784;DHT22;32544;52.832;13.816;2023-03-24T05:16:09;23.50;47.70
46784;DHT22;32544;52.832;13.816;2023-03-24T05:17:18;23.50;47.70
46784;DHT22;32544;52.832;13.816;2023-03-24T05:18:19;23.50;47.80
46784;DHT22;32544;52.832;13.816;2023-03-24T05:19:20;23.50;47.70
46784;DHT22;32544;52.832;13.816;2023-03-24T05:20:20;23.50;47.70
46784;DHT22;32544;52.832;13.816;2023-03-24T05:21:24;23.50;47.70
46784;DHT22;32544;52.832;13.816;2023-03-24T05:22:25;23.50;47.70
46784;DHT22;32544;52.832;13.816;2023-03-24T05:23:25;23.50;47.70
46784;DHT22;32544;52.832;13.816;2023-03-24T05:24:27;23.50;47.80
46784;DHT22;32544;52.832;13.816;2023-03-24T05:25:27;23.50;47.70
46784;DHT22;32544;52.832;13.816;2023-03-24T05:26:28;23.50;47.70
46784;DHT22;32544;52.832;13.816;2023-03-24T05:27:50;23.50;47.70
46784;DHT22;32544;52.832;13.816;2023-03-24T05:29:00;23.50;47.70
46784;DHT22;32544;52.832;13.816;2023-03-24T05:30:00;23.50;47.70
46784;DHT22;32544;52.832;13.816;2023-03-24T05:31:06;23.50;47.70
46784;DHT22;32544;52.832;13.816;2023-03-24T05:32:20;23.50;47.70
46784;DHT22;32544;52.832;13.816;2023-03-24T05:33:21;23.50;47.70
46784;DHT22;32544;52.832;13.816;2023-03-24T05:34:21;23.50;47.70
46784;DHT22;32544;52.832;13.816;2023-03-24T05:35:28;23.50;47.70
46784;DHT22;32544;52.832;13.816;2023-03-24T05:36:30;23.50;47.70
46784;DHT22;32544;52.832;13.816;2023-03-24T05:37:35;23.50;47.70
46784;DHT22;32544;52.832;13.816;2023-03-24T05:38:37;23.50;47.80
46784;DHT22;32544;52.832;13.816;2023-03-24T05:39:37;23.50;47.70
46784;DHT22;32544;52.832;13.816;2023-03-24T05:40:58;23.50;47.80
46784;DHT22;32544;52.832;13.816;2023-03-24T05:42:04;23.50;47.80
46784;DHT22;32544;52.832;13.816;2023-03-24T05:43:04;23.50;47.80
46784;DHT22;32544;52.832;13.816;2023-03-24T05:44:11;23.50;47.70
46784;DHT22;32544;52.832;13.816;2023-03-24T05:45:12;23.50;47.80
46784;DHT22;32544;52.832;13.816;2023-03-24T05:46:13;23.50;47.80
46784;DHT22;32544;52.832;13.816;2023-03-24T05:47:15;23.50;47.80
46784;DHT22;32544;52.832;13.816;2023-03-24T05:48:16;23.50;47.70
46784;DHT22;32544;52.832;13.816;2023-03-24T05:49:32;23.50;47.70
46784;DHT22;32544;52.832;13.816;2023-03-24T05:50:34;23.50;47.80
46784;DHT22;32544;52.832;13.816;2023-03-24T05:51:35;23.50;47.80
46784;DHT22;32544;52.832;13.816;2023-03-24T05:52:38;23.50;47.70
46784;DHT22;32544;52.832;13.816;2023-03-24T05:54:00;23.50;47.70
46784;DHT22;32544;52.832;13.816;2023-03-24T05:55:08;23.50;47.80
46784;DHT22;32544;52.832;13.816;2023-03-24T05:56:10;23.50;47.70
46784;DHT22;32544;52.832;13.816;2023-03-24T05:57:30;23.50;47.80
46784;DHT22;32544;52.832;13.816;2023-03-24T05:58:49;23.50;47.80
46784;DHT22;32544;52.832;13.816;2023-03-24T05:59:51;23.50;47.70
46784;DHT22;32544;52.832;13.816;2023-03-24T06:01:11;23.50;47.80
46784;DHT22;32544;52.832;13.816;2023-03-24T06:02:13;23.50;47.80
46784;DHT22;32544;52.832;13.816;2023-03-24T06:03:21;23.50;47.80
46784;DHT22;32544;52.832;13.816;2023-03-24T06:04:31;23.50;47.80
46784;DHT22;32544;52.832;13.816;2023-03-24T06:05:39;23.50;47.80
46784;DHT22;32544;52.832;13.816;2023-03-24T06:06:39;23.50;47.80
46784;DHT22;32544;52.832;13.816;2023-03-24T06:07:40;23.50;47.80
46784;DHT22;32544;52.832;13.816;2023-03-24T06:08:43;23.50;47.70
46784;DHT22;32544;52.832;13.816;2023-03-24T06:09:45;23.50;47.80
46784;DHT22;32544;52.832;13.816;2023-03-24T06:10:52;23.50;47.70
46784;DHT22;32544;52.832;13.816;2023-03-24T06:11:54;23.50;47.70
46784;DHT22;32544;52.832;13.816;2023-03-24T06:12:55;23.50;47.70
46784;DHT22;32544;52.832;13.816;2023-03-24T06:13:57;23.50;47.70
46784;DHT22;32544;52.832;13.816;2023-03-24T06:15:01;23.50;47.70
46784;DHT22;32544;52.832;13.816;2023-03-24T06:16:02;23.50;47.70
46784;DHT22;32544;52.832;13.816;2023-03-24T06:17:11;23.50;47.70
46784;DHT22;32544;52.832;13.816;2023-03-24T06:18:16;23.50;47.70
46784;DHT22;32544;52.832;13.816;2023-03-24T06:19:17;23.50;47.70
46784;DHT22;32544;52.832;13.816;2023-03-24T06:20:47;23.50;47.70
46784;DHT22;32544;52.832;13.816;2023-03-24T06:21:58;23.50;47.70
46784;DHT22;32544;52.832;13.816;2023-03-24T06:23:05;23.50;47.80
46784;DHT22;32544;52.832;13.816;2023-03-24T06:24:20;23.50;47.80
46784;DHT22;32544;52.832;13.816;2023-03-24T06:25:21;23.50;47.70
46784;DHT22;32544;52.832;13.816;2023-03-24T06:26:35;23.50;47.80
46784;DHT22;32544;52.832;13.816;2023-03-24T06:27:37;23.50;47.80
46784;DHT22;32544;52.832;13.816;2023-03-24T06:28:37;23.50;47.80
46784;DHT22;32544;52.832;13.816;2023-03-24T06:29:44;23.50;47.80
46784;DHT22;32544;52.832;13.816;2023-03-24T06:30:46;23.50;47.70
46784;DHT22;32544;52.832;13.816;2023-03-24T06:31:54;23.50;47.70
46784;DHT22;32544;52.832;13.816;2023-03-24T06:32:55;23.50;47.80
46784;DHT22;32544;52.832;13.816;2023-03-24T06:33:56;23.50;47.80
46784;DHT22;32544;52.832;13.816;2023-03-24T06:34:57;23.50;47.80
46784;DHT22;32544;52.832;13.816;2023-03-24T06:36:14;23.50;47.80
46784;DHT22;32544;52.832;13.816;2023-03-24T06:37:16;23.50;47.80
46784;DHT22;32544;52.832;13.816;2023-03-24T06:38:17;23.50;47.80
46784;DHT22;32544;52.832;13.816;2023-03-24T06:39:19;23.50;47.80
46784;DHT22;32544;52.832;13.816;2023-03-24T06:40:19;23.50;47.80
46784;DHT22;32544;52.832;13.816;2023-03-24T06:41:27;23.50;47.80
46784;DHT22;32544;52.832;13.816;2023-03-24T06:42:32;23.50;47.80
46784;DHT22;32544;52.832;13.816;2023-03-24T06:43:32;23.50;47.80
46784;DHT22;32544;52.832;13.816;2023-03-24T06:44:33;23.50;47.80
46784;DHT22;32544;52.832;13.816;2023-03-24T06:45:34;23.50;47.80
46784;DHT22;32544;52.832;13.816;2023-03-24T06:46:35;23.50;47.70
46784;DHT22;32544;52.832;13.816;2023-03-24T06:47:36;23.50;47.80
46784;DHT22;32544;52.832;13.816;2023-03-24T06:48:37;23.50;47.80
46784;DHT22;32544;52.832;13.816;2023-03-24T06:49:40;23.50;47.80
46784;DHT22;32544;52.832;13.816;2023-03-24T06:50:41;23.50;47.80
46784;DHT22;32544;52.832;13.816;2023-03-24T06:51:44;23.50;47.80
46784;DHT22;32544;52.832;13.816;2023-03-24T06:52:46;23.50;47.80
46784;DHT22;32544;52.832;13.816;2023-03-24T06:53:49;23.50;47.80
46784;DHT22;32544;52.832;13.816;2023-03-24T06:54:50;23.50;47.80
46784;DHT22;32544;52.832;13.816;2023-03-24T06:55:51;23.50;47.80
46784;DHT22;32544;52.832;13.816;2023-03-24T06:56:54;23.50;47.70
46784;DHT22;32544;52.832;13.816;2023-03-24T06:57:56;23.50;47.80
46784;DHT22;32544;52.832;13.816;2023-03-24T06:59:09;23.50;47.80
46784;DHT22;32544;52.832;13.816;2023-03-24T07:00:10;23.50;47.70
46784;DHT22;32544;52.832;13.816;2023-03-24T07:01:22;23.50;47.70
46784;DHT22;32544;52.832;13.816;2023-03-24T07:02:33;23.50;47.80
46784;DHT22;32544;52.832;13.816;2023-03-24T07:03:35;23.50;47.70
46784;DHT22;32544;52.832;13.816;2023-03-24T07:05:05;23.50;47.70
46784;DHT22;32544;52.832;13.816;2023-03-24T07:06:14;23.50;47.80
46784;DHT22;32544;52.832;13.816;2023-03-24T07:07:16;23.50;47.80
46784;DHT22;32544;52.832;13.816;2023-03-24T07:08:27;23.50;47.80
46784;DHT22;32544;52.832;13.816;2023-03-24T07:09:32;23.50;47.80
46784;DHT22;32544;52.832;13.816;2023-03-24T07:10:33;23.50;47.80
46784;DHT22;32544;52.832;13.816;2023-03-24T07:11:34;23.50;47.80
46784;DHT22;32544;52.832;13.816;2023-03-24T07:12:36;23.50;47.80
46784;DHT22;32544;52.832;13.816;2023-03-24T07:13:37;23.50;47.80
46784;DHT22;32544;52.832;13.816;2023-03-24T07:14:38;23.50;47.80
46784;DHT22;32544;52.832;13.816;2023-03-24T07:15:40;23.50;47.80
46784;DHT22;32544;52.832;13.816;2023-03-24T07:16:43;23.50;47.80
46784;DHT22;32544;52.832;13.816;2023-03-24T07:17:59;23.50;47.70
46784;DHT22;32544;52.832;13.816;2023-03-24T07:19:09;23.50;47.70
46784;DHT22;32544;52.832;13.816;2023-03-24T07:20:12;23.50;47.80
46784;DHT22;32544;52.832;13.816;2023-03-24T07:21:36;23.50;47.80
46784;DHT22;32544;52.832;13.816;2023-03-24T07:22:37;23.50;47.80
46784;DHT22;32544;52.832;13.816;2023-03-24T07:23:55;23.50;47.80
46784;DHT22;32544;52.832;13.816;2023-03-24T07:25:03;23.50;47.80
46784;DHT22;32544;52.832;13.816;2023-03-24T07:26:25;23.50;47.80
46784;DHT22;32544;52.832;13.816;2023-03-24T07:27:42;23.50;47.80
46784;DHT22;32544;52.832;13.816;2023-03-24T07:28:42;23.50;47.80
46784;DHT22;32544;52.832;13.816;2023-03-24T07:29:43;23.50;47.80
46784;DHT22;32544;52.832;13.816;2023-03-24T07:30:54;23.50;47.80
46784;DHT22;32544;52.832;13.816;2023-03-24T07:31:55;23.50;47.80
46784;DHT22;32544;52.832;13.816;2023-03-24T07:32:58;23.50;48.40
46784;DHT22;32544;52.832;13.816;2023-03-24T07:34:01;23.50;47.80
46784;DHT22;32544;52.832;13.816;2023-03-24T07:35:02;23.50;47.80
46784;DHT22;32544;52.832;13.816;2023-03-24T07:36:04;23.50;47.80
46784;DHT22;32544;52.832;13.816;2023-03-24T07:37:04;23.50;47.80
46784;DHT22;32544;52.832;13.816;2023-03-24T07:38:05;23.50;47.80
46784;DHT22;32544;52.832;13.816;2023-03-24T07:39:06;23.50;47.80
46784;DHT22;32544;52.832;13.816;2023-03-24T07:40:10;23.50;47.80
46784;DHT22;32544;52.832;13.816;2023-03-24T07:41:14;23.50;47.80
46784;DHT22;32544;52.832;13.816;2023-03-24T07:42:21;23.50;47.80
46784;DHT22;32544;52.832;13.816;2023-03-24T07:43:42;23.50;47.80
46784;DHT22;32544;52.832;13.816;2023-03-24T07:44:58;23.50;47.80
46784;DHT22;32544;52.832;13.816;2023-03-24T07:45:59;23.50;47.80
46784;DHT22;32544;52.832;13.816;2023-03-24T07:47:02;23.50;47.80
46784;DHT22;32544;52.832;13.816;2023-03-24T07:48:03;23.50;47.80
46784;DHT22;32544;52.832;13.816;2023-03-24T07:49:07;23.50;47.80